NDBC will be participating in PACIFEX26, a partner tabletop exercise with the Tsunami Warning Centers (TWCs) scheduled for May 05 at 1600 UTC. To simulate real-time tsunami observations, the exercise may involve activating Deep Ocean Assessment and Reporting of Tsunami (DART) buoys. For more information please see PNS26-39.

Station FPST2 - 8772471 - Freeport SPIP, TX Image indicating link to RSS feed of recent meteorological observations for station FPST2


Conditions at FPST2 as of
(11:48 am CDT)
1648 GMT on 05/06/2026:
     

Click on the graph icon in the table below to see a time series plot of the last five days of that observation.

5-day plot - Wind Direction Wind Direction (WDIR): SE ( 130 deg true )
5-day plot - Wind Speed Wind Speed (WSPD): 8.0 kts
5-day plot - Wind Gust Wind Gust (GST): 8.0 kts
5-day plot - Atmospheric Pressure Atmospheric Pressure (PRES):29.82 in
5-day plot - Wind Speed at 10 Meters Wind Speed at 10 meters (WSPD10M): 7.8 kts
5-day plot - Wind Speed at 20 Meters Wind Speed at 20 meters (WSPD20M): 7.8 kts
5-day plot -  Wind Speed, Wind Gust and Atmospheric Pressure Combined plot of Wind Speed, Gust, and Air Pressure
NOS Water Level Observation Network Water Level
Previous observations
TIME
(CDT)
5-day plot - Wind Direction
WDIR
 
5-day plot - Wind Speed
WSPD
kts
5-day plot - Wind Gust
GST
kts
5-day plot - Wave Height
WVHT
ft
5-day plot - Dominant Wave Period
DPD
sec
5-day plot - Average Wave Period
APD
sec
5-day plot - Mean Wave Direction
MWD
 
5-day plot - Atmospheric Pressure
PRES
in
5-day plot - Pressure Tendency
PTDY
in
5-day plot - Air Temperature
ATMP
°F
5-day plot - Water Temperature
WTMP
°F
5-day plot - Dew Point
DEWP
°F
5-day plot - Salinity
SAL
psu
5-day plot - Visibility
VIS
nmi
5-day plot - Tide (above MLLW)
TIDE
ft
2026-05-06 11:42 amESE 7.0 8.0----29.82-------
2026-05-06 11:36 amESE 5.1 6.0----29.82-------
2026-05-06 11:30 amESE 6.0 7.0----29.82- 77.4 78.6----
2026-05-06 11:24 amESE 7.0 8.0----29.82- 77.4 78.8----
2026-05-06 11:18 amESE 8.0 8.0------------
2026-05-06 11:12 amESE 7.0 8.0------------
2026-05-06 11:06 am SE 7.0 8.0------------
2026-05-06 11:00 am SE 7.0 8.0----29.81+0.02 77.4 78.4----
2026-05-06 10:54 am SE 7.0 8.9----29.81- 77.4 78.4----
2026-05-06 10:48 am SE 9.9 11.1------------
2026-05-06 10:42 am SE 8.9 11.1------------
2026-05-06 10:36 am SE 8.0 11.1------------
2026-05-06 10:30 am SE 9.9 11.1----29.80- 77.2 78.4----
2026-05-06 10:24 am SE 8.0 8.9----29.80- 77.2 78.4----
2026-05-06 10:18 am SE 8.0 8.9----29.80-------
2026-05-06 10:12 am SE 8.9 12.0----29.80-------
2026-05-06 10:06 am SE 8.9 11.1----29.79-------
2026-05-06 10:00 am SE 8.9 13.0----29.80+0.02 77.2 78.4----
2026-05-06 09:54 am SE 12.0 13.0----29.79- 77.2 78.4----
2026-05-06 09:48 amESE 9.9 11.1----29.80-------
2026-05-06 09:42 amESE 8.9 9.9----29.80-------
2026-05-06 09:36 amESE 8.0 9.9----29.80-------
2026-05-06 09:30 amESE 8.9 9.9----29.79- 77.0 78.3----
2026-05-06 09:24 amESE 8.9 11.1----29.79- 77.0 78.3----
2026-05-06 09:18 am SE 9.9 11.1----29.79-------
2026-05-06 09:12 amESE 8.9 11.1----29.79-------
2026-05-06 09:06 amESE 8.9 11.1----29.79-------
2026-05-06 09:00 amESE 8.9 9.9----29.79+0.03 77.2 78.4----
2026-05-06 08:54 amESE 8.9 9.9----29.79- 77.2 78.4----
2026-05-06 08:48 am SE 8.9 11.1------------
2026-05-06 08:42 amESE 8.9 9.9------------
2026-05-06 08:36 amESE 8.0 8.9------------
2026-05-06 08:30 amESE 8.0 9.9----29.79- 77.2 78.4----
2026-05-06 08:24 am SE 8.0 9.9----29.79- 77.2 78.4----
2026-05-06 08:18 am SE 8.9 9.9----29.79-------
2026-05-06 08:12 am SE 8.9 9.9----29.79-------
2026-05-06 08:06 am SE 8.9 9.9----29.79-------
2026-05-06 08:00 am SE 8.0 9.9----29.79+0.04 77.0 78.4----
2026-05-06 07:54 am SE 8.0 8.9----29.79- 77.0 78.4----
2026-05-06 07:48 am SE 8.0 8.9----29.79-------
2026-05-06 07:42 am SE 7.0 8.9----29.79-------
2026-05-06 07:36 am SE 7.0 8.9----29.79-------
2026-05-06 07:30 am SE 7.0 8.0----29.79- 77.0 78.4----
2026-05-06 07:24 am SE 7.0 8.0----29.79- 77.0 78.4----
2026-05-06 07:18 am SE 8.0 8.9----29.78- 77.0 78.6----
2026-05-06 07:12 am SE 8.0 8.9----29.78- 77.0 78.6----
2026-05-06 07:06 am SE 8.0 8.9----29.78- 77.0 78.6----
2026-05-06 07:00 amSSE 8.9 12.0----29.78+0.02 77.2 78.6----
2026-05-06 06:54 am SE 11.1 12.0----29.77- 77.0 78.6----
2026-05-06 06:48 am SE 9.9 12.0------------
2026-05-06 06:42 am SE 8.0 8.9------------
2026-05-06 06:36 am SE 8.0 8.9------------
2026-05-06 06:30 am SE 8.0 8.9----29.77- 77.0 78.6----
2026-05-06 06:24 am SE 7.0 8.0----29.77- 77.0 78.6----
2026-05-06 06:18 am SE 7.0 8.9------------
2026-05-06 06:12 am SE 8.0 11.1------------
2026-05-06 06:06 am SE 9.9 11.1------------
2026-05-06 06:00 am SE 11.1 13.0----29.76+0.00 77.0 78.6----
2026-05-06 05:54 am SE 12.0 13.0----29.76- 77.0 78.6----
2026-05-06 05:48 am SE 12.0 13.0----29.76-------
2026-05-06 05:42 am SE 11.1 12.0----29.76-------
2026-05-06 05:36 am SE 8.9 11.1----29.76-------
2026-05-06 05:30 am SE 9.9 13.0----29.76- 77.0 78.6----
2026-05-06 05:24 am SE 9.9 12.0----29.75- 77.0 78.6----
2026-05-06 05:18 am SE 11.1 13.0----29.76-------
2026-05-06 05:12 am SE 12.0 13.0----29.75-------
2026-05-06 05:06 amESE 9.9 12.0----29.75-------
2026-05-06 05:00 am SE 9.9 14.0----29.75-0.03 77.0 78.6----
2026-05-06 04:54 am SE 12.0 15.9----29.75- 77.0 78.6----
2026-05-06 04:48 am SE 9.9 12.0----29.75-------
2026-05-06 04:42 am SE 8.0 12.0----29.75-------
2026-05-06 04:36 am SE 8.9 12.0----29.75-------
2026-05-06 04:30 am SE 9.9 11.1----29.75- 76.8 78.6----
2026-05-06 04:24 am SE 8.9 11.1----29.75- 76.8 78.6----
2026-05-06 04:18 am SE 9.9 12.0----29.75-- 78.6----
2026-05-06 04:12 am SE 8.9 11.1----29.75-- 78.6----
2026-05-06 04:06 am SE 8.0 9.9----29.75-- 78.6----
2026-05-06 04:00 am SE 8.9 9.9----29.75-0.02 76.8 78.6----
2026-05-06 03:54 am SE 8.9 11.1----29.75- 77.0 78.6----
2026-05-06 03:48 am SE 8.9 9.9----29.76-------
2026-05-06 03:42 am SE 8.9 11.1----29.76-------
2026-05-06 03:36 am SE 9.9 11.1----29.76-------
2026-05-06 03:30 am SE 9.9 11.1----29.77- 77.0 78.6----
2026-05-06 03:24 am SE 8.0 9.9----29.77- 77.0 78.6----
2026-05-06 03:18 am SE 8.9 11.1----29.77-------
2026-05-06 03:12 amSSE 9.9 12.0----29.77-------
2026-05-06 03:06 am SE 9.9 12.0----29.77-------
2026-05-06 03:00 am SE 9.9 12.0----29.77-0.01 76.8 78.6----
2026-05-06 02:54 am SE 8.0 8.9----29.77- 76.8 78.6----
2026-05-06 02:48 amSSE 8.0 8.9----29.77-------
2026-05-06 02:42 amSSE 8.0 9.9----29.78-------
2026-05-06 02:36 amSSE 8.0 8.9----29.78-------
2026-05-06 02:30 amSSE 7.0 8.0----29.78- 77.0 78.6----
2026-05-06 02:24 am S 7.0 8.0----29.79- 77.0 78.6----
2026-05-06 02:18 amSSE 8.0 8.9----29.79-------
2026-05-06 02:12 amSSE 7.0 9.9----29.79-------
2026-05-06 02:06 amSSE 8.0 9.9----29.79-------
2026-05-06 02:00 amSSE 8.9 11.1----29.78+0.00 77.0 78.4----
2026-05-06 01:54 amSSE 9.9 11.1----29.79- 77.0 78.6----
2026-05-06 01:48 amSSE 8.9 11.1----29.79-------
2026-05-06 01:42 amSSE 9.9 11.1----29.79-------
2026-05-06 01:36 amSSE 11.1 12.0----29.79-------
2026-05-06 01:30 amSSE 9.9 12.0----29.78- 77.0 78.6----
2026-05-06 01:24 amSSE 9.9 14.0----29.78- 77.0 78.6----
2026-05-06 01:18 amSSE 11.1 14.0----29.78-------
2026-05-06 01:12 amSSE 12.0 15.0----29.78-------
2026-05-06 01:06 amSSE 13.0 15.0----29.78-------
2026-05-06 01:00 amSSE 13.0 15.0----29.78+0.00 77.0 78.6----
2026-05-06 12:54 amSSE 14.0 15.9----29.78- 76.8 78.8----
2026-05-06 12:48 amSSE 15.0 17.1----29.78-------
2026-05-06 12:42 amSSE 15.0 18.1----29.78-------
2026-05-06 12:36 amSSE 15.9 18.1----29.78-------
2026-05-06 12:30 amSSE 15.9 19.0----29.78- 77.0 78.6----
2026-05-06 12:24 amSSE 17.1 19.0----29.77- 77.0 78.6----
2026-05-06 12:18 am SE 15.9 19.0----29.77-- 78.6----
2026-05-06 12:12 amSSE 15.9 19.0----29.78-- 78.6----
2026-05-06 12:06 amSSE 15.9 18.1----29.78-- 78.6----
2026-05-06 12:00 amSSE 15.0 17.1----29.78+0.03 77.0 78.6----
2026-05-05 11:54 pmSSE 15.0 18.1----29.78- 77.0 78.6----
2026-05-05 11:48 pmSSE 15.0 17.1----29.78-------
2026-05-05 11:42 pmSSE 14.0 17.1----29.78-------
2026-05-05 11:36 pmSSE 14.0 19.0----29.78-------
2026-05-05 11:30 pmSSE 17.1 19.0----29.77- 77.0 78.6----
2026-05-05 11:24 pmSSE 17.1 19.0----29.78- 77.2 78.6----
2026-05-05 11:18 pmSSE 15.9 19.0----29.78- 77.2 78.6----
2026-05-05 11:12 pmSSE 15.0 17.1----29.78- 77.2 78.6----
2026-05-05 11:06 pmSSE 15.0 19.0----29.78- 77.2 78.4----
2026-05-05 11:00 pmSSE 15.9 18.1----29.78+0.05 77.2 78.4----
2026-05-05 10:54 pmSSE 17.1 18.1----29.78- 77.2 78.4----
2026-05-05 10:48 pmSSE 15.9 19.0----29.78-------
2026-05-05 10:42 pmSSE 15.9 19.0----29.78-------
2026-05-05 10:36 pmSSE 15.9 18.1----29.78-------
2026-05-05 10:30 pmSSE 15.9 19.0----29.78- 77.2 78.4----
2026-05-05 10:24 pmSSE 17.1 19.0----29.78- 77.2 78.4----
2026-05-05 10:18 pmSSE 17.1 19.0----29.78-------
2026-05-05 10:12 pmSSE 15.0 19.0----29.77-------
2026-05-05 10:06 pm SE 15.9 19.0----29.77-------
2026-05-05 10:00 pmSSE 15.9 19.0----29.77+0.04 77.2 78.3----
2026-05-05 09:54 pmSSE 15.9 19.0----29.77- 77.0 78.4----
2026-05-05 09:48 pmSSE 17.1 19.0----29.77-------
2026-05-05 09:42 pmSSE 15.9 20.0----29.76-------
2026-05-05 09:36 pmSSE 14.0 18.1----29.76-------
2026-05-05 09:30 pmSSE 15.9 19.0----29.76- 77.2 78.4----
2026-05-05 09:24 pmSSE 17.1 19.0----29.76- 77.2 78.6----
2026-05-05 09:18 pmSSE 17.1 20.0----29.75-------
2026-05-05 09:12 pmSSE 18.1 20.0----29.75-------
2026-05-05 09:06 pmSSE 18.1 21.0----29.75-------
2026-05-05 09:00 pmSSE 17.1 21.0----29.75+0.01 77.0 78.6----
2026-05-05 08:54 pmSSE 17.1 19.0----29.74- 77.2 78.6----
2026-05-05 08:48 pmSSE 17.1 19.0----29.74-------
2026-05-05 08:42 pmSSE 18.1 19.0----29.74-------
2026-05-05 08:36 pmSSE 15.0 19.0----29.74-------
2026-05-05 08:30 pm SE 15.0 18.1----29.73- 77.2 78.8----
2026-05-05 08:24 pmSSE 15.0 19.0----29.73- 77.2 78.8----
2026-05-05 08:18 pm SE 15.9 18.1----29.73-------
2026-05-05 08:12 pm SE 15.9 17.1----29.73-------
2026-05-05 08:06 pmSSE 15.9 17.1----29.73-------
2026-05-05 08:00 pmSSE 15.0 18.1----29.72-0.02 77.2 78.8----
2026-05-05 07:54 pmSSE 15.0 18.1----29.72- 77.2 78.8----
2026-05-05 07:48 pmSSE 15.9 18.1----29.72-------
2026-05-05 07:42 pmSSE 14.0 17.1----29.72-------
2026-05-05 07:36 pmSSE 15.0 18.1----29.72-------
2026-05-05 07:30 pmSSE 15.9 18.1----29.72- 77.2 79.0----
2026-05-05 07:24 pmSSE 14.0 17.1----29.73- 77.2 78.8----
2026-05-05 07:18 pmSSE 15.9 18.1----29.72-------
2026-05-05 07:12 pmSSE 15.0 17.1----29.73-------
2026-05-05 07:06 pmSSE 14.0 15.9----29.73-------
2026-05-05 07:00 pmSSE 14.0 17.1----29.73-0.04 77.4 78.6----
2026-05-05 06:54 pmSSE 15.0 17.1----29.73- 77.4 78.8----
2026-05-05 06:48 pmSSE 15.9 18.1------------
2026-05-05 06:42 pmSSE 14.0 15.9------------
2026-05-05 06:36 pmSSE 14.0 15.9------------
2026-05-05 06:30 pmSSE 13.0 15.0----29.74- 77.5 79.3----
2026-05-05 06:24 pmSSE 13.0 15.0----29.74- 77.7 79.0----
2026-05-05 06:18 pmSSE 15.0 17.1----29.74-------
2026-05-05 06:12 pmSSE 14.0 17.1----29.74-------
2026-05-05 06:06 pmSSE 13.0 15.0----29.74-------
2026-05-05 06:00 pmSSE 14.0 15.9----29.74-0.04 77.5 79.2----
2026-05-05 05:54 pmSSE 14.0 15.9----29.74- 77.5 79.3----
2026-05-05 05:48 pmSSE 13.0 15.0------------
2026-05-05 05:42 pmSSE 13.0 15.9------------
2026-05-05 05:36 pmSSE 14.0 15.9------------
2026-05-05 05:30 pmSSE 14.0 15.0----29.74- 77.5 79.3----
2026-05-05 05:24 pmSSE 14.0 17.1----29.75- 77.4 79.3----
2026-05-05 05:18 pmSSE 13.0 15.0----29.75-------
2026-05-05 05:12 pmSSE 14.0 15.9----29.75-------
2026-05-05 05:06 pmSSE 12.0 13.0----29.75-------
2026-05-05 05:00 pmSSE 13.0 15.0----29.75-0.05 77.5 79.5----
2026-05-05 04:54 pmSSE 12.0 15.0----29.75- 77.5 79.5----
2026-05-05 04:48 pmSSE 11.1 14.0------------
2026-05-05 04:42 pmSSE 12.0 14.0------------
2026-05-05 04:36 pmSSE 13.0 14.0------------
2026-05-05 04:30 pm S 11.1 13.0----29.76- 77.5 79.7----
2026-05-05 04:24 pm S 12.0 13.0----29.76- 77.4 79.5----
2026-05-05 04:18 pm S 11.1 12.0------------
2026-05-05 04:12 pm S 12.0 13.0------------
2026-05-05 04:06 pm S 11.1 12.0------------
2026-05-05 04:00 pm S 11.1 13.0----29.77-0.03 77.4 80.1----
2026-05-05 03:54 pm S 11.1 12.0----29.77- 77.4 80.2----
2026-05-05 03:48 pm S 11.1 13.0----29.77- 77.4 79.9----
2026-05-05 03:42 pm S 12.0 13.0----29.78- 77.4 79.7----
2026-05-05 03:36 pm S 12.0 13.0----29.78- 77.2 79.9----
2026-05-05 03:30 pm S 12.0 14.0----29.78- 77.4 80.1----
2026-05-05 03:24 pm S 12.0 13.0----29.79- 77.2 80.2----
2026-05-05 03:18 pm S 13.0 14.0------------
2026-05-05 03:12 pm S 12.0 14.0------------
2026-05-05 03:06 pm S 12.0 14.0------------
2026-05-05 03:00 pm S 12.0 15.0----29.78-0.03 77.2 79.9----
2026-05-05 02:54 pm S 13.0 15.0----29.79- 77.2 79.7----
2026-05-05 02:48 pm S 13.0 14.0----29.79-------
2026-05-05 02:42 pm S 12.0 14.0----29.79-------
2026-05-05 02:36 pm S 13.0 15.0----29.79-------
2026-05-05 02:30 pm S 12.0 14.0----29.79- 77.0 80.6----
2026-05-05 02:24 pm S 12.0 14.0----29.79- 77.0 80.8----
2026-05-05 02:18 pm S 12.0 14.0------------
2026-05-05 02:12 pm S 12.0 13.0------------
2026-05-05 02:06 pm S 12.0 13.0------------
2026-05-05 02:00 pm S 12.0 14.0----29.80-0.01 77.0 80.1----
2026-05-05 01:54 pm S 12.0 15.0----29.80- 77.0 79.7----
2026-05-05 01:48 pm S 12.0 14.0------------
2026-05-05 01:42 pm S 12.0 14.0------------
2026-05-05 01:36 pm S 12.0 14.0------------
2026-05-05 01:30 pm S 13.0 15.9----29.80- 77.0 79.3----
2026-05-05 01:24 pm S 13.0 15.0----29.80- 76.8 79.3----
2026-05-05 01:18 pm S 14.0 17.1------------
2026-05-05 01:12 pm S 14.0 15.9------------
2026-05-05 01:06 pm S 14.0 15.0------------
2026-05-05 01:00 pm S 14.0 15.9----29.80+0.00 77.0 78.8----
2026-05-05 12:54 pm S 15.0 17.1----29.80- 76.8 78.6----
2026-05-05 12:48 pm S 14.0 17.1----29.81-------
2026-05-05 12:42 pm S 13.0 15.9----29.81-------
2026-05-05 12:36 pm S 13.0 15.0----29.81-------
2026-05-05 12:30 pm S 13.0 15.9----29.81- 76.8 78.4----
2026-05-05 12:24 pmSSE 13.0 15.0----29.81- 76.6 78.6----
2026-05-05 12:18 pmSSE 12.0 15.0----29.81-------
2026-05-05 12:12 pm S 13.0 15.9----29.81-------
2026-05-05 12:06 pm S 14.0 15.9----29.81-------
2026-05-05 12:00 pmSSE 13.0 14.0----29.81+0.01 76.6 78.3----
2026-05-05 11:54 amSSE 12.0 17.1----29.81- 76.6 78.3----